Time;durP1;ratioP1;P1;durP2;ratioP2;P2;SDS_P1;SDS_P2;PMS_P1;PMS_P2;Temp;Humidity;BMP_temperature;BMP_pressure;BME280_temperature;BME280_humidity;BME280_pressure;Samples;Min_cycle;Max_cycle;Signal;HPM_P1;HPM_P2
2021/12/11 00:01:16;;;;;;;117.80;34.78;;;;;;;3.06;100.00;100671.00;5096576;28;20032;-75
2021/12/11 00:03:46;;;;;;;102.93;34.20;;;;;;;3.07;100.00;100680.56;5106086;28;20024;-75
2021/12/11 00:06:21;;;;;;;114.78;34.75;;;;;;;3.08;100.00;100689.25;5106862;28;20023;-75
2021/12/11 00:08:58;;;;;;;113.68;36.38;;;;;;;3.09;100.00;100685.84;5101983;28;20055;-75
2021/12/11 00:11:31;;;;;;;114.30;35.10;;;;;;;3.10;100.00;100695.44;5091016;28;20038;-75
2021/12/11 00:14:03;;;;;;;119.50;36.63;;;;;;;3.09;100.00;100701.44;5107070;28;20034;-75
2021/12/11 00:16:31;;;;;;;105.03;33.85;;;;;;;3.09;100.00;100709.22;5106407;28;20069;-75
2021/12/11 00:19:02;;;;;;;113.60;36.75;;;;;;;3.09;100.00;100717.03;5107259;28;20086;-75
2021/12/11 00:21:31;;;;;;;113.63;33.78;;;;;;;3.09;100.00;100725.72;5107718;28;20054;-75
2021/12/11 00:24:00;;;;;;;117.45;36.22;;;;;;;3.10;100.00;100730.09;5112662;28;20033;-75
2021/12/11 00:26:33;;;;;;;106.35;35.58;;;;;;;3.10;100.00;100731.81;5114391;28;20023;-74
2021/12/11 00:29:00;;;;;;;113.50;35.35;;;;;;;3.11;100.00;100733.59;5082154;28;20514;-74
2021/12/11 00:31:31;;;;;;;113.80;35.95;;;;;;;3.10;100.00;100743.09;5090191;28;20032;-75
2021/12/11 00:33:57;;;;;;;114.25;36.58;;;;;;;3.12;100.00;100745.75;5084541;28;20066;-75
2021/12/11 00:36:31;;;;;;;113.55;36.60;;;;;;;3.11;100.00;100750.09;5103377;28;20043;-74
2021/12/11 00:39:13;;;;;;;115.72;33.30;;;;;;;3.13;100.00;100755.34;5094223;28;20072;-74
2021/12/11 00:41:40;;;;;;;110.60;33.78;;;;;;;3.13;100.00;100765.75;5099870;28;20020;-74
2021/12/11 00:44:06;;;;;;;99.47;32.92;;;;;;;3.13;100.00;100769.22;5081569;28;20491;-75
2021/12/11 00:46:33;;;;;;;113.82;34.67;;;;;;;3.12;100.00;100762.28;5102946;28;20023;-74
2021/12/11 00:49:14;;;;;;;104.82;33.40;;;;;;;3.12;100.00;100771.75;5107492;28;20034;-74
2021/12/11 00:51:40;;;;;;;113.38;33.58;;;;;;;3.13;100.00;100783.94;5079710;28;20476;-74
2021/12/11 00:54:07;;;;;;;109.35;34.05;;;;;;;3.14;100.00;100780.53;5115801;28;20130;-74
2021/12/11 00:56:36;;;;;;;113.00;35.85;;;;;;;3.15;100.00;100790.13;5103895;28;20031;-74
2021/12/11 00:59:08;;;;;;;116.68;36.30;;;;;;;3.15;100.00;100791.00;5104557;28;20035;-75
2021/12/11 01:01:43;;;;;;;125.65;34.78;;;;;;;3.15;100.00;100796.19;5103205;28;20475;-74
2021/12/11 01:04:22;;;;;;;117.35;34.40;;;;;;;3.16;100.00;100803.19;5088968;28;20023;-75
2021/12/11 01:06:57;;;;;;;122.93;36.70;;;;;;;3.17;100.00;100807.56;5102983;28;20086;-74
2021/12/11 01:09:27;;;;;;;110.80;35.88;;;;;;;3.19;100.00;100815.44;5109710;28;20834;-74
2021/12/11 01:12:06;;;;;;;122.70;37.08;;;;;;;3.18;100.00;100818.84;5085112;28;20028;-74
2021/12/11 01:14:50;;;;;;;121.55;35.92;;;;;;;3.19;100.00;100821.53;5090983;28;20499;-74
2021/12/11 01:17:49;;;;;;;111.38;34.67;;;;;;;3.20;100.00;100823.31;5087511;28;20042;-74
2021/12/11 01:20:35;;;;;;;125.25;36.28;;;;;;;3.20;100.00;100828.50;5107340;28;20066;-75
2021/12/11 01:23:15;;;;;;;118.40;37.17;;;;;;;3.20;100.00;100833.72;5102292;28;20507;-74
2021/12/11 01:25:42;;;;;;;108.75;33.33;;;;;;;3.20;100.00;100830.19;5091290;28;20536;-74
2021/12/11 01:28:09;;;;;;;116.30;35.95;;;;;;;3.20;100.00;100841.50;5082442;28;20036;-74
2021/12/11 01:30:40;;;;;;;122.15;35.67;;;;;;;3.19;100.00;100844.03;5094495;28;20038;-75
2021/12/11 01:33:08;;;;;;;122.93;37.58;;;;;;;3.20;100.00;100843.19;5112242;28;20026;-74
2021/12/11 01:35:34;;;;;;;126.93;36.90;;;;;;;3.22;100.00;100857.19;5093523;28;20080;-74
2021/12/11 01:38:20;;;;;;;111.30;35.28;;;;;;;3.21;100.00;100858.00;5100119;28;20526;-74
2021/12/11 01:40:50;;;;;;;114.35;35.50;;;;;;;3.22;100.00;100870.19;5084105;28;20531;-74
2021/12/11 01:43:16;;;;;;;103.53;34.42;;;;;;;3.20;100.00;100864.00;5108162;28;20039;-74
2021/12/11 01:45:47;;;;;;;112.32;35.33;;;;;;;3.19;100.00;100867.44;5104848;28;20490;-74
2021/12/11 01:48:18;;;;;;;115.53;35.25;;;;;;;3.18;100.00;100882.13;5106708;28;20110;-74
2021/12/11 01:50:48;;;;;;;106.38;35.15;;;;;;;3.19;100.00;100883.03;5077574;28;20028;-74
2021/12/11 01:53:28;;;;;;;109.28;34.42;;;;;;;3.18;100.00;100886.47;5103429;28;20414;-74
2021/12/11 01:56:21;;;;;;;113.68;33.45;;;;;;;3.17;100.00;100900.28;5102911;28;20035;-74
2021/12/11 01:58:56;;;;;;;121.40;35.00;;;;;;;3.14;100.00;100897.53;5094216;28;20043;-74
2021/12/11 02:01:30;;;;;;;97.95;33.08;;;;;;;3.12;100.00;100906.94;5100083;28;20078;-74
2021/12/11 02:03:59;;;;;;;99.22;31.80;;;;;;;3.08;100.00;100913.72;5076628;28;20028;-74
2021/12/11 02:06:33;;;;;;;107.85;34.53;;;;;;;3.02;100.00;100909.09;5087168;28;20023;-73
2021/12/11 02:09:14;;;;;;;107.90;34.80;;;;;;;2.99;100.00;100911.56;5098469;28;20027;-73
2021/12/11 02:11:42;;;;;;;110.95;33.25;;;;;;;2.95;100.00;100912.22;5087250;28;20120;-74
2021/12/11 02:14:09;;;;;;;116.90;33.45;;;;;;;2.94;100.00;100919.97;5104493;28;20043;-74
2021/12/11 02:16:45;;;;;;;114.63;35.20;;;;;;;2.92;100.00;100924.22;5105400;28;20074;-74
2021/12/11 02:19:15;;;;;;;129.63;35.63;;;;;;;2.93;100.00;100924.28;5108768;28;20228;-74
2021/12/11 02:21:57;;;;;;;116.90;36.40;;;;;;;2.95;100.00;100924.34;5090816;28;20028;-75
2021/12/11 02:24:30;;;;;;;119.80;33.88;;;;;;;2.98;100.00;100935.78;5102070;28;20592;-74
2021/12/11 02:26:56;;;;;;;122.00;35.38;;;;;;;3.01;100.00;100946.34;5085021;28;20020;-74
2021/12/11 02:29:34;;;;;;;122.65;34.38;;;;;;;3.06;100.00;100954.34;5110487;28;20066;-74
2021/12/11 02:32:03;;;;;;;129.35;35.30;;;;;;;3.08;100.00;100949.22;5108993;28;20463;-74
2021/12/11 02:34:39;;;;;;;121.22;33.83;;;;;;;3.08;100.00;100959.63;5103580;28;20044;-74
2021/12/11 02:37:13;;;;;;;126.80;32.80;;;;;;;3.09;100.00;100964.00;5089288;28;20382;-74
2021/12/11 02:39:43;;;;;;;127.13;32.85;;;;;;;3.10;100.00;100960.59;5096782;28;20035;-74
2021/12/11 02:42:21;;;;;;;117.30;34.55;;;;;;;3.10;100.00;100956.28;5102742;28;20110;-74
2021/12/11 02:44:55;;;;;;;122.97;34.13;;;;;;;3.10;100.00;100971.00;5090620;28;20042;-75
2021/12/11 02:47:21;;;;;;;122.60;33.65;;;;;;;3.08;100.00;100972.63;5101207;28;20149;-74
2021/12/11 02:49:53;;;;;;;121.00;32.80;;;;;;;3.06;100.00;100979.47;5083709;28;20123;-74
2021/12/11 02:52:31;;;;;;;133.18;35.15;;;;;;;3.00;100.00;100978.34;5084784;28;20031;-74
2021/12/11 02:55:07;;;;;;;124.45;32.97;;;;;;;2.97;100.00;100975.59;5093481;28;20024;-74
2021/12/11 02:57:41;;;;;;;111.25;33.78;;;;;;;2.94;100.00;100978.03;5098348;28;20036;-74
2021/12/11 03:00:12;;;;;;;130.35;34.03;;;;;;;2.92;100.00;100981.41;5104507;28;20183;-74
2021/12/11 03:02:45;;;;;;;125.07;34.08;;;;;;;2.89;100.00;100984.72;5104055;28;20024;-74
2021/12/11 03:05:17;;;;;;;139.63;36.22;;;;;;;2.88;100.00;100985.53;5089330;28;20153;-74
2021/12/11 03:07:50;;;;;;;133.93;34.35;;;;;;;2.85;100.00;100975.88;5094739;28;20035;-74
2021/12/11 03:10:19;;;;;;;131.80;36.67;;;;;;;2.86;100.00;100981.94;5103300;28;20092;-74
2021/12/11 03:12:45;;;;;;;140.20;36.17;;;;;;;2.89;100.00;100984.72;5090128;28;20036;-74
2021/12/11 03:15:12;;;;;;;152.13;39.58;;;;;;;2.91;100.00;100988.28;5102569;28;20035;-74
2021/12/11 03:17:38;;;;;;;139.02;37.80;;;;;;;2.92;100.00;100987.47;5109632;28;20023;-74
2021/12/11 03:20:07;;;;;;;140.43;37.03;;;;;;;2.93;100.00;100994.47;5100232;28;20501;-75
2021/12/11 03:22:34;;;;;;;141.35;37.22;;;;;;;2.94;100.00;100985.81;5076181;28;20451;-74
2021/12/11 03:25:08;;;;;;;158.70;40.20;;;;;;;2.97;100.00;100993.78;5102068;28;20030;-74
2021/12/11 03:27:33;;;;;;;149.95;37.70;;;;;;;2.99;100.00;100994.75;5080590;28;20031;-74
2021/12/11 03:30:00;;;;;;;137.23;37.50;;;;;;;3.01;100.00;101000.94;5090290;28;20388;-74
2021/12/11 03:32:26;;;;;;;150.07;38.80;;;;;;;3.03;100.00;101007.09;5072497;28;20043;-74
2021/12/11 03:34:52;;;;;;;154.02;36.30;;;;;;;3.05;100.00;101009.75;5101647;28;20462;-74
2021/12/11 03:37:19;;;;;;;140.68;36.63;;;;;;;3.08;100.00;101020.31;5078433;28;20050;-74
2021/12/11 03:39:50;;;;;;;140.77;36.97;;;;;;;3.10;100.00;101017.81;5086041;28;20031;-74
2021/12/11 03:42:21;;;;;;;130.20;35.58;;;;;;;3.14;100.00;101019.75;5105781;28;20097;-75
2021/12/11 03:44:47;;;;;;;148.32;39.30;;;;;;;3.17;100.00;101023.38;5113355;28;20045;-74
2021/12/11 03:47:23;;;;;;;122.43;34.47;;;;;;;3.22;100.00;101022.72;5107016;28;20035;-74
2021/12/11 03:49:49;;;;;;;132.95;37.50;;;;;;;3.20;100.00;101017.41;5100694;28;20020;-74
2021/12/11 03:52:15;;;;;;;139.25;36.15;;;;;;;3.18;100.00;101019.06;5104648;28;20077;-73
2021/12/11 03:54:43;;;;;;;125.45;35.30;;;;;;;3.19;100.00;101015.66;5080166;28;20023;-74
2021/12/11 03:57:11;;;;;;;133.98;34.95;;;;;;;3.20;100.00;101020.94;5092162;28;20059;-74
2021/12/11 03:59:37;;;;;;;132.27;35.55;;;;;;;3.21;100.00;101016.59;5081443;28;20054;-74
2021/12/11 04:02:10;;;;;;;133.45;38.10;;;;;;;3.25;100.00;101018.53;5087199;28;20051;-74
2021/12/11 04:04:46;;;;;;;131.40;34.25;;;;;;;3.27;100.00;101014.31;5101051;28;20491;-75
2021/12/11 04:07:16;;;;;;;123.78;36.97;;;;;;;3.30;100.00;101011.88;5094310;28;20390;-75
2021/12/11 04:09:43;;;;;;;125.30;34.40;;;;;;;3.32;100.00;101024.94;5079126;28;20039;-75
2021/12/11 04:12:09;;;;;;;138.10;34.50;;;;;;;3.31;100.00;101018.84;5103160;28;20035;-75
2021/12/11 04:14:39;;;;;;;121.65;34.05;;;;;;;3.30;100.00;101024.88;5103126;28;20026;-75
2021/12/11 04:17:08;;;;;;;117.65;34.42;;;;;;;3.30;100.00;101024.88;5093632;28;20024;-75
2021/12/11 04:19:34;;;;;;;109.22;33.35;;;;;;;3.33;100.00;101026.72;5088172;28;20160;-75
2021/12/11 04:22:01;;;;;;;119.25;32.88;;;;;;;3.36;100.00;101032.97;5082761;28;20034;-75
2021/12/11 04:24:29;;;;;;;112.57;33.08;;;;;;;3.39;100.00;101042.63;5090188;28;20031;-75
2021/12/11 04:26:57;;;;;;;108.82;31.58;;;;;;;3.43;100.00;101036.78;5098922;28;20084;-75
2021/12/11 04:29:24;;;;;;;126.55;32.28;;;;;;;3.44;100.00;101042.84;5107331;28;20024;-75
2021/12/11 04:31:51;;;;;;;113.80;31.13;;;;;;;3.47;100.00;101043.91;5108994;28;20061;-75
2021/12/11 04:34:19;;;;;;;107.50;30.67;;;;;;;3.51;100.00;101044.94;5109134;28;20043;-75
2021/12/11 04:36:52;;;;;;;113.20;31.00;;;;;;;3.51;100.00;101047.53;5112217;28;20063;-75
2021/12/11 04:39:21;;;;;;;102.75;29.48;;;;;;;3.52;100.00;101046.72;5103549;28;20412;-75
2021/12/11 04:42:02;;;;;;;94.30;26.92;;;;;;;3.59;100.00;101056.59;5101376;28;20149;-75
2021/12/11 04:44:36;;;;;;;105.57;29.73;;;;;;;3.58;100.00;101057.44;5089341;28;20049;-75
2021/12/11 04:47:05;;;;;;;108.50;28.52;;;;;;;3.59;100.00;101064.41;5105637;28;20024;-75
2021/12/11 04:49:41;;;;;;;103.65;28.13;;;;;;;3.62;100.00;101067.19;5087481;28;20027;-74
2021/12/11 04:52:18;;;;;;;99.60;28.27;;;;;;;3.65;100.00;101054.31;5086331;28;20467;-74
2021/12/11 05:03:00;;;;;;;22.42;5.40;;;;;;;4.12;100.00;101066.88;5095574;28;20400;-74
2021/12/11 05:08:24;;;;;;;18.27;2.25;;;;;;;4.52;100.00;101076.53;5113220;28;20038;-74
2021/12/11 05:10:57;;;;;;;17.23;1.92;;;;;;;4.73;100.00;101072.25;5102838;28;20165;-74
2021/12/11 05:13:25;;;;;;;26.05;1.63;;;;;;;4.85;100.00;101076.22;5095538;28;20387;-74
2021/12/11 05:15:53;;;;;;;19.13;1.70;;;;;;;4.99;100.00;101075.09;5087952;28;20118;-75
2021/12/11 05:18:22;;;;;;;15.98;2.10;;;;;;;5.08;100.00;101074.59;5092858;28;20058;-74
2021/12/11 05:20:52;;;;;;;23.67;3.10;;;;;;;5.20;100.00;101082.06;5091029;28;20128;-75
2021/12/11 05:23:19;;;;;;;17.10;1.40;;;;;;;5.34;100.00;101078.28;5101367;28;20478;-74
2021/12/11 05:25:46;;;;;;;21.08;2.20;;;;;;;5.42;100.00;101080.34;5103260;28;20019;-75
2021/12/11 05:28:12;;;;;;;17.85;1.50;;;;;;;5.49;100.00;101083.25;5094643;28;20113;-75
2021/12/11 05:30:47;;;;;;;15.00;1.75;;;;;;;5.53;100.00;101085.16;5098088;28;20494;-74
2021/12/11 05:33:14;;;;;;;14.57;1.67;;;;;;;5.56;100.00;101093.13;5111829;28;20027;-75
2021/12/11 05:35:40;;;;;;;13.20;1.75;;;;;;;5.62;100.00;101089.88;5085365;28;20036;-74
2021/12/11 05:38:09;;;;;;;12.75;1.98;;;;;;;5.77;100.00;101096.56;5094876;28;20080;-75
2021/12/11 05:40:37;;;;;;;18.15;1.77;;;;;;;5.77;100.00;101088.72;5104648;28;21423;-74
2021/12/11 05:43:04;;;;;;;22.20;2.22;;;;;;;5.78;100.00;101100.94;5089150;28;20032;-75
2021/12/11 05:45:30;;;;;;;21.98;1.70;;;;;;;5.80;100.00;101107.13;5090620;28;20024;-74
2021/12/11 05:47:55;;;;;;;28.25;2.88;;;;;;;5.81;100.00;101106.28;5101608;28;20039;-75
2021/12/11 05:50:31;;;;;;;11.25;1.58;;;;;;;5.79;100.00;101113.16;5091407;28;20023;-74
2021/12/11 05:52:57;;;;;;;24.92;2.95;;;;;;;5.74;100.00;101110.38;5108506;28;20020;-74
2021/12/11 05:55:24;;;;;;;11.40;1.23;;;;;;;5.66;100.00;101117.00;5095989;28;20020;-74
2021/12/11 05:57:56;;;;;;;17.27;1.75;;;;;;;5.66;100.00;101122.22;5083798;28;20031;-74
2021/12/11 06:00:26;;;;;;;21.10;1.90;;;;;;;5.62;100.00;101128.16;5090014;28;20031;-75
2021/12/11 06:02:54;;;;;;;13.27;2.05;;;;;;;5.60;100.00;101140.25;5103231;28;20472;-75
2021/12/11 06:05:20;;;;;;;12.63;1.58;;;;;;;5.59;100.00;101141.97;5093838;28;20520;-75
2021/12/11 06:07:46;;;;;;;16.55;3.28;;;;;;;5.56;100.00;101154.88;5094308;28;20027;-74
2021/12/11 06:10:15;;;;;;;16.58;1.67;;;;;;;5.54;100.00;101159.16;5087159;28;20501;-74
2021/12/11 06:12:41;;;;;;;16.17;2.10;;;;;;;5.51;100.00;101154.69;5095832;28;20032;-75
2021/12/11 06:15:08;;;;;;;9.80;1.40;;;;;;;5.58;100.00;101161.06;5096826;28;20448;-74
2021/12/11 06:17:34;;;;;;;10.85;2.45;;;;;;;5.55;100.00;101163.56;5088170;28;20043;-74
2021/12/11 06:20:03;;;;;;;17.83;2.13;;;;;;;5.53;100.00;101173.91;5101413;28;20036;-74
2021/12/11 06:22:33;;;;;;;13.02;1.85;;;;;;;5.51;100.00;101188.63;5088708;28;20035;-75
2021/12/11 06:25:05;;;;;;;16.83;1.98;;;;;;;5.49;100.00;101197.22;5102769;28;20035;-75
2021/12/11 06:27:31;;;;;;;12.57;1.45;;;;;;;5.50;100.00;101210.31;5106324;28;20040;-76
2021/12/11 06:29:57;;;;;;;22.67;2.05;;;;;;;5.58;100.00;101218.50;5086377;28;20479;-75
2021/12/11 06:32:24;;;;;;;16.08;1.88;;;;;;;5.63;100.00;101223.91;5075462;28;20023;-75
2021/12/11 06:34:52;;;;;;;17.73;1.80;;;;;;;5.72;100.00;101234.75;5067226;28;20037;-75
2021/12/11 06:37:20;;;;;;;16.60;1.50;;;;;;;5.76;100.00;101246.22;5062471;28;20036;-75
2021/12/11 06:39:51;;;;;;;22.60;1.70;;;;;;;5.81;100.00;101247.31;5061319;28;20028;-74
2021/12/11 06:42:19;;;;;;;12.88;2.15;;;;;;;5.81;100.00;101242.09;5081922;28;20024;-74
2021/12/11 06:44:46;;;;;;;7.75;2.50;;;;;;;5.75;100.00;101253.13;5067694;28;20032;-74
2021/12/11 06:47:15;;;;;;;15.95;1.70;;;;;;;5.65;100.00;101251.84;5062171;28;20024;-74
2021/12/11 06:49:42;;;;;;;13.23;1.85;;;;;;;5.58;100.00;101255.03;5068719;28;20120;-74
2021/12/11 06:52:19;;;;;;;14.48;1.95;;;;;;;5.44;100.00;101267.50;5064100;28;20028;-74
2021/12/11 06:54:46;;;;;;;11.70;2.47;;;;;;;5.31;100.00;101271.25;5065178;28;20040;-74
2021/12/11 06:57:13;;;;;;;16.27;2.50;;;;;;;5.21;100.00;101279.53;5066111;28;20021;-74
2021/12/11 06:59:39;;;;;;;9.23;3.03;;;;;;;5.09;100.00;101286.75;5074689;28;20400;-74
2021/12/11 07:02:05;;;;;;;8.75;3.17;;;;;;;4.99;100.00;101286.34;5062158;28;20021;-74
2021/12/11 07:04:31;;;;;;;10.63;3.28;;;;;;;4.91;100.00;101298.16;5081268;28;20357;-74
2021/12/11 07:06:57;;;;;;;10.80;3.90;;;;;;;4.94;100.00;101316.53;5067522;28;20577;-73
2021/12/11 07:09:25;;;;;;;14.98;4.45;;;;;;;4.91;100.00;101311.19;5070579;28;20116;-74
2021/12/11 07:11:52;;;;;;;16.90;4.88;;;;;;;4.90;100.00;101317.22;5058823;28;20028;-74
2021/12/11 07:14:21;;;;;;;10.90;4.82;;;;;;;4.89;100.00;101323.25;5058774;28;20044;-74
2021/12/11 07:16:47;;;;;;;16.30;4.95;;;;;;;4.93;100.00;101330.38;5068175;28;20119;-73
2021/12/11 07:19:14;;;;;;;13.13;5.85;;;;;;;4.87;100.00;101335.31;5059160;28;20115;-74
2021/12/11 07:21:41;;;;;;;22.73;6.13;;;;;;;4.81;100.00;101341.13;5069588;28;20036;-74
2021/12/11 07:24:11;;;;;;;11.15;5.60;;;;;;;4.78;100.00;101345.31;5065938;28;20044;-74
2021/12/11 07:26:36;;;;;;;10.88;5.50;;;;;;;4.81;100.00;101353.28;5058496;28;20379;-73
2021/12/11 07:29:10;;;;;;;11.40;5.55;;;;;;;4.78;100.00;101358.34;5061300;28;20116;-74
2021/12/11 07:31:37;;;;;;;20.92;5.50;;;;;;;4.78;100.00;101360.97;5062465;28;20025;-74
2021/12/11 07:34:03;;;;;;;11.18;5.57;;;;;;;4.80;100.00;101365.44;5065153;28;20480;-74
2021/12/11 07:36:29;;;;;;;17.70;5.95;;;;;;;4.79;100.00;101366.25;5092275;28;20020;-73
2021/12/11 07:38:56;;;;;;;21.48;6.55;;;;;;;4.75;100.00;101371.22;5102175;28;20165;-73
2021/12/11 07:41:46;;;;;;;15.50;5.88;;;;;;;4.72;100.00;101377.16;5102351;28;20035;-74
2021/12/11 07:44:11;;;;;;;24.10;7.40;;;;;;;4.67;100.00;101391.72;5104494;28;20036;-73
2021/12/11 07:46:37;;;;;;;20.25;7.72;;;;;;;4.61;100.00;101400.09;5097728;28;20024;-73
2021/12/11 07:49:04;;;;;;;23.55;7.15;;;;;;;4.54;100.00;101406.75;5105019;28;20036;-74
2021/12/11 07:51:34;;;;;;;17.60;7.10;;;;;;;4.48;100.00;101403.81;5110445;28;20096;-74
2021/12/11 07:54:00;;;;;;;19.48;9.32;;;;;;;4.41;100.00;101406.94;5101916;28;20026;-73
2021/12/11 07:56:27;;;;;;;20.73;8.98;;;;;;;4.35;100.00;101412.75;5105230;28;20036;-73
2021/12/11 07:58:55;;;;;;;19.10;9.27;;;;;;;4.29;100.00;101420.22;5101245;28;20383;-75
2021/12/11 08:01:21;;;;;;;20.83;10.07;;;;;;;4.24;100.00;101423.44;5109765;28;20027;-74
2021/12/11 08:03:47;;;;;;;24.98;11.40;;;;;;;4.22;100.00;101425.97;5111273;28;20042;-74
2021/12/11 08:06:14;;;;;;;31.10;12.35;;;;;;;4.22;100.00;101442.47;5091770;28;20472;-74
2021/12/11 08:08:41;;;;;;;29.90;10.18;;;;;;;4.31;100.00;101447.25;5090518;28;20123;-75
2021/12/11 08:11:13;;;;;;;29.83;11.27;;;;;;;4.35;100.00;101454.44;5102854;28;20031;-75
2021/12/11 08:13:43;;;;;;;26.73;11.02;;;;;;;4.37;100.00;101460.59;5104199;28;20043;-74
2021/12/11 08:16:11;;;;;;;28.67;11.80;;;;;;;4.39;100.00;101468.50;5080997;28;20022;-74
2021/12/11 08:18:37;;;;;;;34.47;11.90;;;;;;;4.40;100.00;101467.69;5084290;28;20028;-75
2021/12/11 08:21:02;;;;;;;29.30;12.57;;;;;;;4.40;100.00;101472.91;5102920;28;20501;-74
2021/12/11 08:23:28;;;;;;;33.05;12.68;;;;;;;4.42;100.00;101476.47;5107708;28;20100;-74
2021/12/11 08:25:54;;;;;;;34.65;12.77;;;;;;;4.43;100.00;101483.47;5090784;28;20096;-74
2021/12/11 08:28:25;;;;;;;29.63;12.52;;;;;;;4.44;100.00;101484.38;5102647;28;20047;-74
2021/12/11 08:30:52;;;;;;;36.33;13.07;;;;;;;4.47;100.00;101498.44;5090576;28;20020;-75
2021/12/11 08:33:18;;;;;;;30.52;12.73;;;;;;;4.48;100.00;101495.03;5102327;28;20024;-75
2021/12/11 08:35:45;;;;;;;35.28;13.75;;;;;;;4.50;100.00;101505.53;5106250;28;20074;-74
2021/12/11 08:38:10;;;;;;;29.67;13.13;;;;;;;4.50;100.00;101502.94;5080852;28;20056;-74
2021/12/11 08:40:40;;;;;;;41.60;15.02;;;;;;;4.53;100.00;101516.09;5111262;28;20459;-75
2021/12/11 08:43:08;;;;;;;38.90;13.85;;;;;;;4.55;100.00;101509.28;5092504;28;20073;-74
2021/12/11 08:45:45;;;;;;;36.33;13.27;;;;;;;4.58;100.00;101517.25;5089128;27;20542;-73
2021/12/11 08:48:19;;;;;;;36.17;14.40;;;;;;;4.59;100.00;101524.25;5108961;28;20110;-73
2021/12/11 08:50:49;;;;;;;31.70;12.95;;;;;;;4.58;100.00;101525.06;5089264;28;20027;-74
2021/12/11 08:53:18;;;;;;;35.63;13.50;;;;;;;4.58;100.00;101527.69;5104386;28;20047;-74
2021/12/11 08:55:49;;;;;;;34.80;14.23;;;;;;;4.57;100.00;101536.31;5101746;28;20020;-73
2021/12/11 08:58:21;;;;;;;42.28;15.85;;;;;;;4.58;100.00;101539.81;5108983;28;20035;-75
2021/12/11 09:01:04;;;;;;;32.28;14.57;;;;;;;4.63;100.00;101549.66;5083203;28;20387;-75
2021/12/11 09:03:46;;;;;;;38.58;15.15;;;;;;;4.73;100.00;101549.34;5101223;28;20028;-76
2021/12/11 09:06:26;;;;;;;50.15;16.55;;;;;;;4.83;100.00;101548.09;5111518;28;20091;-73
2021/12/11 09:08:57;;;;;;;33.67;14.98;;;;;;;4.88;100.00;101551.84;5096914;28;20028;-72
2021/12/11 09:11:44;;;;;;;36.47;15.25;;;;;;;4.89;100.00;101557.94;5088695;28;20040;-73
2021/12/11 09:14:19;;;;;;;38.17;15.60;;;;;;;4.89;100.00;101565.75;5095231;28;20472;-72
2021/12/11 09:16:50;;;;;;;35.55;15.15;;;;;;;4.84;100.00;101556.81;5095479;28;20502;-72
2021/12/11 09:19:18;;;;;;;38.45;15.52;;;;;;;4.77;100.00;101563.41;5103955;28;20051;-75
2021/12/11 09:21:50;;;;;;;42.33;16.77;;;;;;;4.73;100.00;101567.59;5089090;28;20032;-75
2021/12/11 09:24:26;;;;;;;29.58;15.07;;;;;;;4.68;100.00;101568.13;5077448;28;20089;-77
2021/12/11 09:27:14;;;;;;;42.88;17.15;;;;;;;4.64;100.00;101577.53;5103725;28;20096;-74
2021/12/11 09:29:58;;;;;;;38.60;15.75;;;;;;;4.69;100.00;101582.97;5091698;28;20027;-74
2021/12/11 09:32:30;;;;;;;50.15;17.05;;;;;;;4.75;100.00;101590.22;5097396;28;20505;-75
2021/12/11 09:35:13;;;;;;;47.15;18.33;;;;;;;4.94;100.00;101590.38;5082578;28;20042;-76
2021/12/11 09:37:41;;;;;;;47.85;17.35;;;;;;;5.18;100.00;101595.03;5107333;28;20035;-74
2021/12/11 09:40:10;;;;;;;44.47;17.70;;;;;;;5.48;100.00;101602.59;5077884;28;20047;-75
2021/12/11 09:42:35;;;;;;;46.45;16.73;;;;;;;5.67;100.00;101605.31;5095234;28;20472;-75
2021/12/11 09:45:39;;;;;;;40.97;16.38;;;;;;;5.94;100.00;101599.66;5090912;28;20104;-74
2021/12/11 09:48:17;;;;;;;41.50;15.60;;;;;;;6.08;100.00;101601.22;5053918;28;20040;-74
2021/12/11 09:50:55;;;;;;;27.85;14.20;;;;;;;6.32;100.00;101603.19;5100197;28;20128;-74
2021/12/11 09:53:25;;;;;;;30.52;13.35;;;;;;;6.42;100.00;101594.03;5093530;28;20467;-74
2021/12/11 09:55:54;;;;;;;27.23;12.88;;;;;;;6.57;100.00;101599.06;5107819;28;20103;-74
2021/12/11 09:58:23;;;;;;;24.85;13.10;;;;;;;6.73;100.00;101606.78;5108826;28;20399;-76
2021/12/11 10:01:03;;;;;;;34.95;12.73;;;;;;;6.89;100.00;101604.81;5085059;28;20383;-75
2021/12/11 10:03:34;;;;;;;28.60;11.30;;;;;;;7.15;100.00;101605.06;5112953;28;20028;-75
2021/12/11 10:06:12;;;;;;;29.63;10.90;;;;;;;7.49;100.00;101606.47;5097956;28;20020;-76
2021/12/11 10:08:42;;;;;;;27.05;11.45;;;;;;;8.01;100.00;101618.19;5082453;28;20032;-75
2021/12/11 10:11:28;;;;;;;19.23;9.50;;;;;;;8.60;100.00;101617.00;5100654;28;20456;-75
2021/12/11 10:14:00;;;;;;;20.00;9.73;;;;;;;9.10;97.43;101608.25;5094138;28;20035;-75
2021/12/11 10:16:31;;;;;;;25.15;8.15;;;;;;;9.48;92.69;101610.41;5094918;28;20357;-75
2021/12/11 10:18:56;;;;;;;14.60;7.53;;;;;;;9.78;90.99;101615.78;5108830;28;20027;-75
2021/12/11 10:21:36;;;;;;;17.15;7.53;;;;;;;10.09;88.14;101611.47;5102885;28;20024;-76
2021/12/11 10:24:10;;;;;;;16.23;7.90;;;;;;;10.42;88.60;101610.75;5094210;28;20039;-76
2021/12/11 10:26:36;;;;;;;16.58;7.40;;;;;;;10.71;85.89;101611.59;5075811;28;20024;-75
2021/12/11 10:29:07;;;;;;;20.27;5.72;;;;;;;11.08;83.67;101604.72;5096377;28;20077;-75
2021/12/11 10:31:39;;;;;;;14.18;6.38;;;;;;;11.32;81.96;101607.97;5103507;28;20020;-75
2021/12/11 10:34:09;;;;;;;15.55;7.07;;;;;;;11.50;82.40;101612.78;5080808;28;20509;-72
2021/12/11 10:36:43;;;;;;;13.38;6.88;;;;;;;11.75;80.30;101620.44;5104195;28;20028;-74
2021/12/11 10:39:13;;;;;;;12.43;6.53;;;;;;;11.72;80.08;101619.47;5085379;28;20024;-74
2021/12/11 10:41:38;;;;;;;12.63;5.68;;;;;;;12.37;79.29;101614.00;5093095;28;20040;-75
2021/12/11 10:44:17;;;;;;;16.35;5.88;;;;;;;12.44;77.05;101613.25;5108940;28;20467;-75
2021/12/11 10:47:06;;;;;;;19.58;5.53;;;;;;;12.62;75.88;101618.00;5093006;28;20053;-75
2021/12/11 10:49:32;;;;;;;16.20;5.28;;;;;;;12.91;76.17;101620.34;5104161;28;20549;-75
2021/12/11 10:52:14;;;;;;;13.82;4.47;;;;;;;13.19;71.51;101604.16;5084102;28;20040;-74
2021/12/11 10:54:40;;;;;;;13.77;4.50;;;;;;;13.15;73.32;101617.28;5102129;28;20055;-74
2021/12/11 10:57:06;;;;;;;10.07;3.35;;;;;;;13.27;73.08;101623.66;5100910;28;20093;-74
2021/12/11 10:59:35;;;;;;;9.82;3.47;;;;;;;13.67;70.80;101619.06;5109669;28;20031;-74
2021/12/11 11:02:26;;;;;;;16.08;4.03;;;;;;;13.07;69.28;101616.25;5087352;28;20043;-73
2021/12/11 11:04:56;;;;;;;12.52;3.70;;;;;;;12.30;72.14;101628.78;5087831;28;20077;-74
2021/12/11 11:07:24;;;;;;;13.13;3.80;;;;;;;11.71;76.68;101639.69;5104185;28;20020;-74
2021/12/11 11:09:50;;;;;;;12.00;3.65;;;;;;;11.17;77.98;101651.47;5093058;28;20442;-74
2021/12/11 11:12:21;;;;;;;9.90;3.78;;;;;;;10.23;80.47;101654.00;5101159;28;20028;-75
2021/12/11 11:14:48;;;;;;;18.08;5.60;;;;;;;9.75;84.37;101663.88;5093803;28;20031;-75
2021/12/11 11:17:18;;;;;;;22.52;6.03;;;;;;;9.11;87.83;101673.06;5088689;28;20081;-74
2021/12/11 11:19:45;;;;;;;14.30;5.82;;;;;;;8.77;90.78;101682.31;5080648;28;20126;-74
2021/12/11 11:22:16;;;;;;;15.43;6.35;;;;;;;8.39;94.16;101689.59;5100455;28;20036;-74
2021/12/11 11:24:46;;;;;;;12.85;4.95;;;;;;;8.03;95.50;101695.13;5082113;28;20039;-74
2021/12/11 11:27:12;;;;;;;12.07;4.70;;;;;;;7.97;96.61;101690.53;5088279;28;20027;-74
2021/12/11 11:29:41;;;;;;;12.55;4.15;;;;;;;7.81;97.05;101696.00;5090057;28;20071;-74
2021/12/11 11:32:11;;;;;;;15.55;5.13;;;;;;;7.85;97.35;101693.53;5093724;28;20589;-74
2021/12/11 11:34:40;;;;;;;17.73;5.15;;;;;;;7.89;98.48;101694.56;5081182;28;20499;-74
2021/12/11 11:37:09;;;;;;;11.18;4.32;;;;;;;7.90;98.67;101699.88;5085576;28;20035;-74